Time;durP1;ratioP1;P1;durP2;ratioP2;P2;SDS_P1;SDS_P2;PMS_P1;PMS_P2;Temp;Humidity;BMP_temperature;BMP_pressure;BME280_temperature;BME280_humidity;BME280_pressure;Samples;Min_cycle;Max_cycle;Signal;HPM_P1;HPM_P2
2022/10/20 00:01:29;;;;;;;13.63;7.50;;;;;;;9.96;100.00;101593.41;5211928;28;20026;-72
2022/10/20 00:04:01;;;;;;;16.40;7.80;;;;;;;9.71;100.00;101578.81;5211158;28;20057;-72
2022/10/20 00:06:32;;;;;;;14.73;8.20;;;;;;;9.83;100.00;101578.28;5213386;28;20030;-72
2022/10/20 00:09:04;;;;;;;15.40;8.60;;;;;;;9.74;100.00;101558.59;5213036;28;20105;-73
2022/10/20 00:11:35;;;;;;;12.50;7.60;;;;;;;9.82;100.00;101566.13;5213731;28;20026;-72
2022/10/20 00:14:07;;;;;;;13.53;8.50;;;;;;;9.85;100.00;101573.81;5217259;28;20027;-72
2022/10/20 00:16:38;;;;;;;14.77;8.80;;;;;;;9.77;100.00;101578.56;5213760;28;20030;-73
2022/10/20 00:19:10;;;;;;;13.97;8.43;;;;;;;9.68;100.00;101580.66;5212346;28;20018;-72
2022/10/20 00:21:42;;;;;;;13.47;8.63;;;;;;;9.77;100.00;101575.94;5212123;28;20465;-73
2022/10/20 00:24:13;;;;;;;10.87;8.03;;;;;;;9.73;100.00;101576.97;5212265;28;20535;-74
2022/10/20 00:26:44;;;;;;;14.40;10.00;;;;;;;9.63;100.00;101577.41;5212890;28;20109;-74
2022/10/20 00:29:16;;;;;;;13.63;8.23;;;;;;;9.77;100.00;101574.16;5212534;28;20033;-73
2022/10/20 00:31:47;;;;;;;15.43;9.50;;;;;;;9.57;100.00;101572.44;5210520;28;20063;-72
2022/10/20 00:34:18;;;;;;;12.63;8.90;;;;;;;9.68;100.00;101558.88;5213351;28;20057;-72
2022/10/20 00:36:49;;;;;;;15.70;10.20;;;;;;;9.50;100.00;101544.84;5213556;28;20030;-72
2022/10/20 00:39:21;;;;;;;13.10;9.27;;;;;;;9.42;100.00;101551.28;5213063;28;20059;-74
2022/10/20 00:41:52;;;;;;;15.37;9.83;;;;;;;9.55;100.00;101558.56;5213213;28;20109;-72
2022/10/20 00:44:47;;;;;;;12.00;9.60;;;;;;;9.59;100.00;101549.69;5213357;28;20050;-73
2022/10/20 00:47:44;;;;;;;18.93;10.40;;;;;;;9.62;100.00;101539.06;5211282;28;20037;-73
2022/10/20 00:50:20;;;;;;;13.20;10.17;;;;;;;9.47;100.00;101524.94;5217173;28;20057;-73
2022/10/20 00:52:53;;;;;;;13.07;9.93;;;;;;;9.55;100.00;101535.03;5216727;28;20026;-72
2022/10/20 00:55:28;;;;;;;14.37;9.97;;;;;;;9.67;100.00;101529.25;5216602;28;20053;-74
2022/10/20 00:58:01;;;;;;;21.57;11.33;;;;;;;9.58;100.00;101541.91;5216312;28;20432;-72
2022/10/20 01:00:33;;;;;;;18.80;10.37;;;;;;;9.54;100.00;101539.44;5216298;28;20481;-73
2022/10/20 01:03:07;;;;;;;14.33;10.80;;;;;;;9.58;100.00;101547.13;5215611;28;20092;-73
2022/10/20 01:05:38;;;;;;;16.60;10.93;;;;;;;9.58;100.00;101541.91;5216322;28;20099;-72
2022/10/20 01:08:09;;;;;;;13.90;11.00;;;;;;;9.43;100.00;101524.22;5272812;23;20049;-74
2022/10/20 01:10:57;;;;;;;17.63;10.70;;;;;;;9.54;100.00;101520.28;5256868;28;20029;-73
2022/10/20 01:13:54;;;;;;;16.33;10.83;;;;;;;9.54;100.00;101507.19;5255930;28;20025;-74
2022/10/20 01:16:37;;;;;;;15.93;11.17;;;;;;;9.65;100.00;101491.84;5256323;28;20025;-73
2022/10/20 01:19:40;;;;;;;17.23;11.87;;;;;;;9.55;100.00;101488.81;5256152;28;20509;-73
2022/10/20 01:22:23;;;;;;;16.97;12.47;;;;;;;9.51;100.00;101483.81;5256236;28;20035;-74
2022/10/20 01:25:05;;;;;;;20.10;12.00;;;;;;;9.52;100.00;101481.13;5255209;28;20021;-75
2022/10/20 01:27:47;;;;;;;16.47;11.13;;;;;;;9.50;100.00;101469.88;5254684;28;20091;-75
2022/10/20 01:30:21;;;;;;;17.30;11.57;;;;;;;9.50;100.00;101466.41;5255601;28;20422;-73
2022/10/20 01:33:19;;;;;;;21.00;13.10;;;;;;;9.52;100.00;101447.13;5254954;28;20190;-73
2022/10/20 01:36:11;;;;;;;16.03;11.57;;;;;;;9.62;100.00;101465.84;5255755;28;20029;-74
2022/10/20 01:38:54;;;;;;;18.50;11.83;;;;;;;9.52;100.00;101464.56;5254928;28;20391;-77
2022/10/20 01:41:38;;;;;;;19.23;12.70;;;;;;;9.46;100.00;101457.84;5255123;28;20079;-73
2022/10/20 01:44:13;;;;;;;14.80;12.10;;;;;;;9.42;100.00;101454.56;5255787;28;20023;-72
2022/10/20 01:46:45;;;;;;;15.90;11.77;;;;;;;9.51;100.00;101462.88;5254962;28;20383;-72
2022/10/20 01:49:17;;;;;;;16.20;11.47;;;;;;;9.57;100.00;101473.06;5255224;28;20071;-73
2022/10/20 01:51:48;;;;;;;18.20;11.57;;;;;;;9.42;100.00;101459.78;5256210;28;20079;-73
2022/10/20 01:54:25;;;;;;;14.83;11.87;;;;;;;9.39;100.00;101470.34;5256640;28;20122;-74
2022/10/20 01:57:24;;;;;;;15.93;11.60;;;;;;;9.53;100.00;101471.53;5256924;28;20029;-72
2022/10/20 02:00:14;;;;;;;16.53;11.43;;;;;;;9.54;100.00;101470.59;5255314;28;20086;-73
2022/10/20 02:02:48;;;;;;;15.73;11.73;;;;;;;9.48;100.00;101457.81;5255605;28;20025;-72
2022/10/20 02:05:36;;;;;;;21.60;11.73;;;;;;;9.52;100.00;101468.03;5255448;28;20077;-72
2022/10/20 02:08:24;;;;;;;18.27;11.70;;;;;;;9.48;100.00;101463.03;5255556;28;20107;-75
2022/10/20 02:11:00;;;;;;;14.87;12.13;;;;;;;9.45;100.00;101450.94;5256493;28;20116;-75
2022/10/20 02:13:36;;;;;;;15.00;10.57;;;;;;;9.44;100.00;101442.22;5256623;28;20112;-73
2022/10/20 02:16:15;;;;;;;20.53;12.50;;;;;;;9.43;100.00;101452.75;5256193;28;20033;-71
2022/10/20 02:18:47;;;;;;;18.43;11.23;;;;;;;9.37;100.00;101445.22;5254612;28;20021;-73
2022/10/20 02:21:18;;;;;;;19.03;12.23;;;;;;;9.34;100.00;101430.50;5255951;28;20098;-72
2022/10/20 02:23:53;;;;;;;17.87;11.23;;;;;;;9.26;100.00;101420.41;5255948;28;20131;-72
2022/10/20 02:26:24;;;;;;;16.27;12.43;;;;;;;9.27;100.00;101424.69;5255711;28;20056;-73
2022/10/20 02:28:59;;;;;;;16.60;11.63;;;;;;;9.25;100.00;101423.09;5258535;28;20029;-72
2022/10/20 02:31:30;;;;;;;18.65;11.27;;;;;;;9.30;100.00;101419.31;5256248;28;20364;-73
2022/10/20 02:34:02;;;;;;;20.20;12.60;;;;;;;9.29;100.00;101412.41;5255993;28;20064;-73
2022/10/20 02:36:38;;;;;;;18.40;12.00;;;;;;;9.15;100.00;101405.19;5255583;28;20075;-76
2022/10/20 02:39:10;;;;;;;16.93;11.63;;;;;;;9.19;100.00;101400.69;5256194;28;20045;-74
2022/10/20 02:41:41;;;;;;;18.40;12.33;;;;;;;9.15;100.00;101386.91;5255965;28;20061;-75
2022/10/20 02:44:12;;;;;;;20.83;13.67;;;;;;;9.24;100.00;101383.03;5255818;28;20410;-76
2022/10/20 02:46:44;;;;;;;18.17;12.40;;;;;;;9.10;100.00;101370.59;5255313;28;20402;-73
2022/10/20 02:49:15;;;;;;;17.60;12.13;;;;;;;9.13;100.00;101359.16;5256241;28;20025;-72
2022/10/20 02:51:46;;;;;;;15.60;12.37;;;;;;;9.16;100.00;101354.59;5255680;28;20052;-72
2022/10/20 02:54:18;;;;;;;16.77;12.40;;;;;;;9.14;100.00;101346.03;5255740;28;20033;-74
2022/10/20 02:56:49;;;;;;;20.03;13.30;;;;;;;9.14;100.00;101359.09;5255348;28;20024;-73
2022/10/20 02:59:20;;;;;;;16.93;12.47;;;;;;;9.20;100.00;101356.19;5255462;28;20112;-74
2022/10/20 03:01:52;;;;;;;18.97;13.67;;;;;;;9.22;100.00;101342.19;5254401;28;20025;-75
2022/10/20 03:04:23;;;;;;;18.90;13.43;;;;;;;9.15;100.00;101333.78;5256124;28;20474;-72
2022/10/20 03:06:54;;;;;;;19.13;14.80;;;;;;;9.14;100.00;101324.25;5255344;28;20032;-74
2022/10/20 03:09:25;;;;;;;16.23;14.27;;;;;;;9.08;100.00;101326.22;5255378;28;20062;-72
2022/10/20 03:11:57;;;;;;;20.80;14.87;;;;;;;9.25;100.00;101329.00;5254419;28;20502;-73
2022/10/20 03:14:28;;;;;;;23.70;16.17;;;;;;;9.24;100.00;101329.91;5255379;28;20036;-73
2022/10/20 03:16:59;;;;;;;25.57;16.90;;;;;;;9.20;100.00;101324.81;5254197;28;20643;-73
2022/10/20 03:19:31;;;;;;;18.57;15.50;;;;;;;9.26;100.00;101328.06;5253739;28;20032;-74
2022/10/20 03:22:02;;;;;;;22.70;16.57;;;;;;;9.30;100.00;101330.44;5255165;28;20064;-73
2022/10/20 03:24:33;;;;;;;24.73;16.83;;;;;;;9.22;100.00;101313.44;5254842;28;20101;-72
2022/10/20 03:27:05;;;;;;;22.97;16.30;;;;;;;9.27;100.00;101309.69;5252522;28;20036;-74
2022/10/20 03:29:36;;;;;;;23.67;16.93;;;;;;;9.29;100.00;101310.47;5255035;28;20025;-73
2022/10/20 03:32:07;;;;;;;21.87;16.30;;;;;;;9.32;100.00;101312.09;5252829;28;20029;-73
2022/10/20 03:34:38;;;;;;;24.13;16.63;;;;;;;9.31;100.00;101300.81;5254977;28;20114;-72
2022/10/20 03:37:10;;;;;;;24.93;17.30;;;;;;;9.28;100.00;101306.19;5258592;28;20032;-73
2022/10/20 03:39:41;;;;;;;26.80;17.60;;;;;;;9.29;100.00;101307.00;5254167;28;20541;-73
2022/10/20 03:42:13;;;;;;;26.40;17.90;;;;;;;9.26;100.00;101294.09;5254532;28;20360;-75
2022/10/20 03:44:44;;;;;;;25.43;17.90;;;;;;;9.40;100.00;101294.28;5255125;28;20418;-73
2022/10/20 03:47:16;;;;;;;24.80;18.40;;;;;;;9.36;100.00;101284.88;5253668;28;20033;-74
2022/10/20 03:49:47;;;;;;;21.67;17.63;;;;;;;9.43;100.00;101299.38;5255044;28;20032;-72
2022/10/20 03:52:18;;;;;;;22.97;17.20;;;;;;;9.43;100.00;101288.06;5254363;28;20049;-73
2022/10/20 03:54:50;;;;;;;25.80;18.70;;;;;;;9.39;100.00;101271.66;5254511;28;20108;-73
2022/10/20 03:57:21;;;;;;;24.33;18.90;;;;;;;9.50;100.00;101278.13;5254923;28;20029;-73
2022/10/20 03:59:52;;;;;;;22.17;16.60;;;;;;;9.50;100.00;101278.13;5254029;28;20025;-73
2022/10/20 04:02:32;;;;;;;24.10;18.00;;;;;;;9.55;100.00;101277.00;5254078;28;20025;-72
2022/10/20 04:05:04;;;;;;;20.97;17.63;;;;;;;9.50;100.00;101278.13;5254164;28;20071;-73
2022/10/20 04:07:36;;;;;;;25.13;18.30;;;;;;;9.54;100.00;101279.69;5255333;28;20037;-73
2022/10/20 04:10:09;;;;;;;22.63;17.87;;;;;;;9.41;100.00;101280.28;5255439;28;20025;-72
2022/10/20 04:12:40;;;;;;;28.17;18.17;;;;;;;9.43;100.00;101268.00;5255874;28;20035;-73
2022/10/20 04:15:11;;;;;;;24.43;18.17;;;;;;;9.56;100.00;101268.22;5256270;28;20024;-73
2022/10/20 04:17:43;;;;;;;26.47;18.67;;;;;;;9.58;100.00;101260.34;5258382;28;20438;-73
2022/10/20 04:20:15;;;;;;;28.63;17.10;;;;;;;9.62;100.00;101243.56;5257457;28;20025;-73
2022/10/20 04:22:46;;;;;;;25.73;18.30;;;;;;;9.64;100.00;101244.34;5257180;28;20102;-73
2022/10/20 04:25:17;;;;;;;22.83;17.20;;;;;;;9.72;100.00;101249.16;5260079;28;20091;-74
2022/10/20 04:27:48;;;;;;;27.13;18.40;;;;;;;9.75;100.00;101241.19;5258930;28;20017;-73
2022/10/20 04:30:20;;;;;;;24.87;18.27;;;;;;;9.65;100.00;101211.19;5257530;28;20048;-74
2022/10/20 04:32:51;;;;;;;27.43;18.10;;;;;;;9.83;100.00;101235.56;5257487;28;20033;-73
2022/10/20 04:35:22;;;;;;;24.00;18.40;;;;;;;9.85;100.00;101233.72;5258303;28;20053;-74
2022/10/20 04:37:53;;;;;;;25.17;18.83;;;;;;;9.86;100.00;101232.78;5258255;28;20114;-74
2022/10/20 04:40:25;;;;;;;22.03;17.57;;;;;;;9.93;100.00;101234.16;5258437;28;20029;-73
2022/10/20 04:43:00;;;;;;;21.20;16.37;;;;;;;9.93;100.00;101223.69;5256295;28;20049;-72
2022/10/20 04:45:31;;;;;;;;;;;;;;;10.03;100.00;101236.31;5257536;28;20110;-72
2022/10/20 04:48:04;;;;;;;18.53;16.07;;;;;;;9.96;100.00;101216.63;5256968;28;19917;-72
2022/10/20 04:50:35;;;;;;;22.73;17.63;;;;;;;9.97;100.00;101207.84;5257874;28;20100;-72
2022/10/20 04:53:07;;;;;;;26.97;17.63;;;;;;;9.98;100.00;101199.06;5257816;28;20120;-72
2022/10/20 04:55:38;;;;;;;24.33;18.07;;;;;;;10.00;100.00;101200.69;5257770;28;20137;-73
2022/10/20 04:58:10;;;;;;;22.00;18.33;;;;;;;10.07;100.00;101205.59;5257445;28;20060;-71
2022/10/20 05:00:41;;;;;;;20.87;16.00;;;;;;;9.96;100.00;101195.69;5257851;28;20112;-73
2022/10/20 05:03:12;;;;;;;23.67;17.53;;;;;;;10.05;100.00;101200.47;5258291;28;20090;-75
2022/10/20 05:05:45;;;;;;;28.83;16.77;;;;;;;10.08;100.00;101194.19;5257394;28;20036;-74
2022/10/20 05:08:16;;;;;;;22.00;15.40;;;;;;;9.99;100.00;101187.69;5256305;28;20060;-74
2022/10/20 05:10:47;;;;;;;24.63;16.93;;;;;;;10.15;100.00;101214.75;5257930;28;20382;-72
2022/10/20 05:13:18;;;;;;;27.07;18.70;;;;;;;10.11;100.00;101222.81;5257818;28;20028;-71
2022/10/20 05:15:52;;;;;;;23.80;16.23;;;;;;;10.03;100.00;101202.31;5257391;28;20025;-72
2022/10/20 05:18:24;;;;;;;24.92;17.10;;;;;;;10.06;100.00;101191.66;5256345;28;20485;-71
2022/10/20 05:20:55;;;;;;;28.57;16.90;;;;;;;9.97;100.00;101164.22;5255821;28;20021;-70
2022/10/20 05:23:26;;;;;;;20.10;16.87;;;;;;;10.09;100.00;101167.94;5257744;28;20741;-70
2022/10/20 05:26:01;;;;;;;23.23;17.23;;;;;;;10.00;100.00;101171.06;5257087;28;20028;-72
2022/10/20 05:28:32;;;;;;;23.92;17.15;;;;;;;10.01;100.00;101177.97;5255647;28;20060;-72
2022/10/20 05:31:06;;;;;;;21.97;17.37;;;;;;;10.06;100.00;101186.44;5253838;28;20136;-73
2022/10/20 05:33:38;;;;;;;22.88;16.10;;;;;;;10.06;100.00;101189.06;5255959;28;20021;-72
2022/10/20 05:36:11;;;;;;;21.30;16.13;;;;;;;10.08;100.00;101200.28;5256132;28;20025;-73
2022/10/20 05:38:43;;;;;;;27.83;17.37;;;;;;;10.04;100.00;101188.28;5255547;28;20063;-75
2022/10/20 05:41:16;;;;;;;24.57;17.57;;;;;;;10.04;100.00;101180.44;5256807;28;20053;-73
2022/10/20 05:43:56;;;;;;;21.97;16.87;;;;;;;9.98;100.00;101168.53;5256128;28;20028;-73
2022/10/20 05:46:30;;;;;;;25.63;18.63;;;;;;;9.99;100.00;101174.59;5255939;28;20056;-73
2022/10/20 05:49:02;;;;;;;18.00;15.73;;;;;;;10.03;100.00;101177.00;5255164;28;20024;-73
2022/10/20 05:51:35;;;;;;;24.37;16.87;;;;;;;9.99;100.00;101190.28;5256251;28;20017;-73
2022/10/20 05:54:06;;;;;;;24.27;17.47;;;;;;;10.01;100.00;101186.69;5256108;28;20025;-73
2022/10/20 05:56:37;;;;;;;25.33;17.17;;;;;;;9.99;100.00;101185.06;5257202;28;20372;-72
2022/10/20 05:59:09;;;;;;;18.87;16.17;;;;;;;9.99;100.00;101179.81;5255971;28;20034;-72
2022/10/20 06:01:47;;;;;;;25.03;18.27;;;;;;;9.91;100.00;101173.22;5255607;28;20028;-73
2022/10/20 06:04:23;;;;;;;19.63;17.53;;;;;;;10.01;100.00;101183.22;5254670;28;20070;-74
2022/10/20 06:06:55;;;;;;;24.53;16.87;;;;;;;10.01;100.00;101185.84;5255093;28;20128;-73
2022/10/20 06:09:26;;;;;;;25.23;17.27;;;;;;;9.91;100.00;101160.13;5255318;28;20045;-73
2022/10/20 06:11:58;;;;;;;26.93;16.87;;;;;;;10.04;100.00;101177.81;5251495;28;20017;-73
2022/10/20 06:14:29;;;;;;;22.70;16.73;;;;;;;10.07;100.00;101176.81;5242878;28;20056;-74
2022/10/20 06:17:01;;;;;;;20.93;16.53;;;;;;;10.06;100.00;101175.97;5251412;28;20037;-73
2022/10/20 06:19:32;;;;;;;25.47;17.67;;;;;;;10.05;100.00;101169.06;5253453;28;20131;-73
2022/10/20 06:22:03;;;;;;;25.10;17.67;;;;;;;10.05;100.00;101180.34;5253711;28;20788;-73
2022/10/20 06:24:34;;;;;;;23.53;17.50;;;;;;;10.09;100.00;101186.28;5253497;28;20024;-72
2022/10/20 06:27:09;;;;;;;19.53;16.27;;;;;;;10.15;100.00;101195.56;5253639;28;20020;-72
2022/10/20 06:29:40;;;;;;;25.20;17.90;;;;;;;10.12;100.00;101186.09;5251870;28;20365;-75
2022/10/20 06:32:11;;;;;;;25.17;17.50;;;;;;;10.12;100.00;101167.78;5250890;28;20024;-73
2022/10/20 06:34:43;;;;;;;28.17;16.43;;;;;;;10.20;100.00;101187.47;5251294;28;20032;-73
2022/10/20 06:37:14;;;;;;;22.70;16.53;;;;;;;10.13;100.00;101166.03;5258916;28;20032;-75
2022/10/20 06:39:45;;;;;;;19.90;17.23;;;;;;;10.16;100.00;101163.22;5250979;28;20035;-73
2022/10/20 06:42:16;;;;;;;18.83;15.37;;;;;;;10.24;100.00;101168.94;5241839;28;20033;-73
2022/10/20 06:44:48;;;;;;;21.13;16.80;;;;;;;10.28;100.00;101174.84;5251582;28;20027;-75
2022/10/20 06:47:19;;;;;;;21.80;16.77;;;;;;;10.13;100.00;101153.78;5261196;28;20047;-74
2022/10/20 06:49:51;;;;;;;21.00;17.03;;;;;;;10.29;100.00;101169.53;5267482;28;20077;-74
2022/10/20 06:52:22;;;;;;;21.23;17.07;;;;;;;10.30;100.00;101165.13;5258967;28;20029;-74
2022/10/20 06:54:53;;;;;;;20.17;15.53;;;;;;;10.33;100.00;101162.34;5253880;28;20017;-74
2022/10/20 06:57:24;;;;;;;25.47;16.17;;;;;;;10.31;100.00;101156.34;5240889;28;20037;-74
2022/10/20 06:59:56;;;;;;;21.60;15.00;;;;;;;10.32;100.00;101165.88;5233093;28;20025;-74
2022/10/20 07:02:27;;;;;;;20.23;16.03;;;;;;;10.37;100.00;101153.41;5250770;28;20396;-73
2022/10/20 07:04:58;;;;;;;19.83;15.03;;;;;;;10.41;100.00;101144.47;5252663;28;20020;-73
2022/10/20 07:07:30;;;;;;;24.27;15.00;;;;;;;10.41;100.00;101136.59;5253746;28;20025;-75
2022/10/20 07:10:01;;;;;;;23.33;16.57;;;;;;;10.34;100.00;101143.09;5252631;28;20765;-71
2022/10/20 07:12:32;;;;;;;18.50;14.90;;;;;;;10.44;100.00;101153.06;5240081;28;20121;-72
2022/10/20 07:15:05;;;;;;;18.20;15.47;;;;;;;10.50;100.00;101166.72;5258763;28;20020;-71
2022/10/20 07:17:36;;;;;;;23.40;16.60;;;;;;;10.55;100.00;101166.44;5263281;28;20032;-73
2022/10/20 07:20:08;;;;;;;20.17;15.20;;;;;;;10.59;100.00;101160.13;5254546;28;20025;-73
2022/10/20 07:22:39;;;;;;;21.73;15.60;;;;;;;10.51;100.00;101149.19;5253599;28;20024;-73
2022/10/20 07:25:10;;;;;;;28.37;15.70;;;;;;;10.59;100.00;101157.50;5247085;28;20044;-72
2022/10/20 07:27:41;;;;;;;21.13;14.93;;;;;;;10.58;100.00;101161.03;5256548;28;20037;-75
2022/10/20 07:30:13;;;;;;;20.83;15.07;;;;;;;10.68;100.00;101157.91;5253184;28;20017;-73
2022/10/20 07:32:44;;;;;;;17.43;14.83;;;;;;;10.67;100.00;101161.44;5248513;28;20025;-76
2022/10/20 07:35:16;;;;;;;22.73;15.30;;;;;;;10.77;100.00;101165.25;5252273;28;20108;-74
2022/10/20 07:37:47;;;;;;;18.57;14.37;;;;;;;10.84;100.00;101165.78;5250795;28;20028;-74
2022/10/20 07:40:18;;;;;;;21.33;14.63;;;;;;;10.86;100.00;101163.91;5254462;28;20029;-73
2022/10/20 07:42:50;;;;;;;22.53;15.67;;;;;;;10.93;100.00;101164.38;5240337;28;20068;-72
2022/10/20 07:45:21;;;;;;;18.87;15.37;;;;;;;10.96;100.00;101167.69;5264198;28;20029;-71
2022/10/20 07:47:52;;;;;;;22.07;14.03;;;;;;;11.05;100.00;101163.69;5262237;28;20036;-71
2022/10/20 07:50:24;;;;;;;19.63;14.03;;;;;;;11.11;100.00;101152.88;5261439;28;20037;-71
2022/10/20 07:52:56;;;;;;;26.63;14.70;;;;;;;11.16;100.00;101150.00;5271270;28;20028;-73
2022/10/20 07:55:27;;;;;;;19.37;15.57;;;;;;;11.27;100.00;101159.00;5252303;28;20934;-74
2022/10/20 07:57:59;;;;;;;18.93;13.63;;;;;;;11.29;100.00;101165.88;5254896;28;20029;-72
2022/10/20 08:00:30;;;;;;;16.83;13.77;;;;;;;11.38;100.00;101181.06;5263199;28;20148;-72
2022/10/20 08:03:01;;;;;;;21.20;14.83;;;;;;;11.37;100.00;101171.50;5256589;28;20826;-73
2022/10/20 08:05:33;;;;;;;15.13;13.53;;;;;;;11.48;100.00;101162.16;5253059;28;20044;-70
2022/10/20 08:08:04;;;;;;;19.07;13.80;;;;;;;11.54;100.00;101146.06;5257458;28;20072;-73
2022/10/20 08:10:35;;;;;;;21.30;14.03;;;;;;;11.60;100.00;101153.59;5259990;28;20047;-72
2022/10/20 08:13:07;;;;;;;19.00;13.53;;;;;;;11.64;100.00;101164.75;5256237;28;20057;-72
2022/10/20 08:15:38;;;;;;;20.00;13.30;;;;;;;11.68;100.00;101154.88;5256215;28;20349;-71
2022/10/20 08:18:09;;;;;;;18.77;13.50;;;;;;;11.74;100.00;101155.38;5258849;28;20025;-73
2022/10/20 08:20:41;;;;;;;17.27;13.40;;;;;;;11.83;100.00;101158.38;5258291;28;20116;-71
2022/10/20 08:23:13;;;;;;;18.80;13.17;;;;;;;11.82;100.00;101148.81;5255146;28;20017;-74
2022/10/20 08:25:44;;;;;;;15.50;12.50;;;;;;;11.82;100.00;101146.19;5257047;28;20039;-71
2022/10/20 08:28:15;;;;;;;18.13;13.73;;;;;;;11.82;100.00;101136.53;5274268;28;20032;-73
2022/10/20 08:30:47;;;;;;;24.50;13.43;;;;;;;11.93;100.00;101154.28;5256428;28;20436;-71
2022/10/20 08:33:18;;;;;;;18.57;14.07;;;;;;;11.76;100.00;101136.91;5254272;28;20029;-73
2022/10/20 08:35:49;;;;;;;17.63;13.73;;;;;;;11.91;100.00;101152.66;5269950;28;20035;-72
2022/10/20 08:38:20;;;;;;;18.70;14.77;;;;;;;11.88;100.00;101151.06;5260699;28;20034;-72
2022/10/20 08:40:52;;;;;;;21.20;14.13;;;;;;;11.95;100.00;101159.41;5255595;28;20009;-72
2022/10/20 08:43:24;;;;;;;18.40;12.77;;;;;;;12.12;100.00;101152.31;5255228;28;20497;-71
2022/10/20 08:45:55;;;;;;;18.50;12.77;;;;;;;12.30;100.00;101145.94;5254681;28;20033;-71
2022/10/20 08:48:31;;;;;;;19.57;13.17;;;;;;;12.49;100.00;101151.81;5255738;28;20039;-72
2022/10/20 08:51:03;;;;;;;16.67;12.87;;;;;;;12.54;100.00;101150.59;5256995;28;20091;-71
2022/10/20 08:53:38;;;;;;;17.23;12.87;;;;;;;12.76;100.00;101146.56;5249862;28;20108;-72
2022/10/20 08:56:12;;;;;;;14.47;12.07;;;;;;;13.26;100.00;101126.75;5256503;28;20025;-75
2022/10/20 08:58:45;;;;;;;15.43;11.45;;;;;;;13.72;100.00;101125.41;5251027;28;20032;-73
2022/10/20 09:01:21;;;;;;;13.30;11.27;;;;;;;13.79;100.00;101124.06;5255003;28;20099;-72
2022/10/20 09:04:37;;;;;;;16.07;10.90;;;;;;;13.71;100.00;101123.75;5254799;28;20104;-72
2022/10/20 09:07:26;;;;;;;17.27;11.30;;;;;;;13.57;100.00;101124.69;5218319;28;20029;-76
2022/10/20 09:10:15;;;;;;;14.37;11.33;;;;;;;13.41;100.00;101114.34;5256330;28;20037;-74
2022/10/20 09:12:48;;;;;;;14.00;11.23;;;;;;;13.38;100.00;101118.03;5257837;28;20415;-75
2022/10/20 09:15:25;;;;;;;14.37;11.13;;;;;;;13.24;100.00;101113.69;5253345;28;20025;-72
2022/10/20 09:18:05;;;;;;;13.67;10.70;;;;;;;13.35;100.00;101128.75;5256551;28;20276;-71
2022/10/20 09:20:43;;;;;;;17.77;11.60;;;;;;;13.25;100.00;101125.03;5255949;28;20419;-72
2022/10/20 09:23:18;;;;;;;15.10;11.67;;;;;;;13.30;100.00;101123.78;5253986;28;20403;-72
2022/10/20 09:25:51;;;;;;;16.93;11.87;;;;;;;13.20;100.00;101125.34;5256728;28;20543;-73
2022/10/20 09:28:25;;;;;;;14.67;11.20;;;;;;;13.23;100.00;101122.50;5252328;28;20514;-72
2022/10/20 09:30:56;;;;;;;22.05;12.05;;;;;;;13.19;100.00;101115.78;5255552;28;20021;-73
2022/10/20 09:33:31;;;;;;;13.40;10.70;;;;;;;13.21;100.00;101113.06;5253390;28;20086;-73
2022/10/20 09:36:13;;;;;;;15.35;11.27;;;;;;;13.24;100.00;101118.97;5255887;28;20670;-74
2022/10/20 09:38:50;;;;;;;16.83;11.60;;;;;;;13.22;100.00;101115.56;5255661;28;20021;-75
2022/10/20 09:41:29;;;;;;;16.57;12.00;;;;;;;13.31;100.00;101133.38;5255723;28;20025;-72
2022/10/20 09:44:06;;;;;;;17.27;12.67;;;;;;;13.25;100.00;101128.53;5250875;28;20383;-72
2022/10/20 09:46:44;;;;;;;16.07;11.77;;;;;;;13.19;100.00;101129.75;5252940;28;20032;-72
2022/10/20 09:49:32;;;;;;;16.60;11.60;;;;;;;13.24;100.00;101134.72;5255611;28;20028;-73
2022/10/20 09:52:18;;;;;;;15.03;11.67;;;;;;;13.27;100.00;101123.16;5255523;28;20078;-75
2022/10/20 09:54:58;;;;;;;18.03;11.30;;;;;;;13.25;100.00;101110.09;5252743;28;20504;-73
2022/10/20 09:57:30;;;;;;;14.07;11.07;;;;;;;13.22;100.00;101105.06;5248475;28;20091;-73
2022/10/20 10:00:01;;;;;;;18.80;11.83;;;;;;;13.31;100.00;101114.97;5254212;28;20102;-73
2022/10/20 10:02:33;;;;;;;17.90;11.13;;;;;;;13.28;100.00;101109.06;5267864;28;20028;-75
2022/10/20 10:05:19;;;;;;;19.47;10.97;;;;;;;13.27;100.00;101108.22;5253360;28;20036;-73
2022/10/20 10:07:58;;;;;;;17.23;10.83;;;;;;;13.26;100.00;101111.81;5253929;28;20132;-74
2022/10/20 10:10:30;;;;;;;18.40;12.23;;;;;;;13.29;100.00;101119.50;5254899;28;20119;-72
2022/10/20 10:13:04;;;;;;;18.30;11.90;;;;;;;13.24;100.00;101110.22;5241133;28;21096;-73
2022/10/20 10:15:37;;;;;;;14.38;11.70;;;;;;;13.33;100.00;101116.66;5254203;28;20025;-73
2022/10/20 10:18:18;;;;;;;25.73;13.77;;;;;;;13.31;100.00;101119.38;5254606;28;20568;-73
2022/10/20 10:20:59;;;;;;;19.93;12.97;;;;;;;13.31;100.00;101109.72;5252743;28;20075;-75
2022/10/20 10:23:35;;;;;;;21.90;13.30;;;;;;;13.25;100.00;101109.25;5252635;28;20372;-69
2022/10/20 10:26:43;;;;;;;19.07;13.30;;;;;;;13.27;100.00;101097.69;5253084;28;20036;-72
2022/10/20 10:29:25;;;;;;;20.40;12.77;;;;;;;13.19;100.00;101087.69;5254818;28;20016;-71
2022/10/20 10:32:02;;;;;;;21.20;13.23;;;;;;;13.14;100.00;101086.31;5253046;28;20108;-73
2022/10/20 10:34:36;;;;;;;20.07;14.17;;;;;;;13.14;100.00;101081.06;5250405;28;20027;-74
2022/10/20 10:37:12;;;;;;;15.43;13.77;;;;;;;13.16;100.00;101089.69;5254888;28;20020;-72
2022/10/20 10:39:44;;;;;;;18.63;13.37;;;;;;;13.08;100.00;101066.53;5255095;28;20023;-73
2022/10/20 10:42:52;;;;;;;22.63;14.70;;;;;;;13.11;100.00;101076.03;5253067;28;20025;-73
2022/10/20 10:45:42;;;;;;;19.20;14.30;;;;;;;13.05;100.00;101082.53;5236726;28;20037;-72
2022/10/20 10:48:37;;;;;;;25.17;15.37;;;;;;;13.09;100.00;101081.34;5247580;28;20053;-74
2022/10/20 10:51:25;;;;;;;21.30;14.32;;;;;;;13.06;100.00;101089.44;5244629;28;20024;-76
2022/10/20 10:54:27;;;;;;;21.20;14.40;;;;;;;13.00;100.00;101096.00;5251961;28;20379;-73
2022/10/20 10:57:09;;;;;;;25.87;15.70;;;;;;;12.94;100.00;101086.72;5240640;28;20029;-73
2022/10/20 10:59:42;;;;;;;20.53;16.20;;;;;;;12.97;100.00;101090.91;5246265;28;20036;-73
2022/10/20 11:02:17;;;;;;;20.23;15.40;;;;;;;12.91;100.00;101088.69;5233233;28;20038;-71
2022/10/20 11:05:06;;;;;;;21.80;16.77;;;;;;;12.85;100.00;101076.78;5250116;28;20032;-74
2022/10/20 11:07:46;;;;;;;23.63;17.63;;;;;;;12.90;100.00;101068.59;5252407;28;20116;-73
2022/10/20 11:10:55;;;;;;;23.17;16.93;;;;;;;12.96;100.00;101060.31;5254694;28;20162;-73
2022/10/20 11:13:46;;;;;;;21.97;17.20;;;;;;;12.96;100.00;101057.69;5241125;28;20036;-72
2022/10/20 11:16:35;;;;;;;22.00;16.33;;;;;;;12.96;100.00;101055.06;5254260;28;20419;-73
2022/10/20 11:19:31;;;;;;;23.37;17.77;;;;;;;12.98;100.00;101052.31;5262948;28;20020;-72
2022/10/20 11:22:29;;;;;;;24.30;16.30;;;;;;;13.01;100.00;101052.97;5276269;28;20466;-73
2022/10/20 11:25:13;;;;;;;22.90;16.57;;;;;;;13.09;100.00;101060.31;5261516;28;20016;-72
2022/10/20 11:27:44;;;;;;;20.88;16.35;;;;;;;12.98;100.00;101037.41;5258786;28;20033;-73
2022/10/20 11:30:19;;;;;;;25.47;19.07;;;;;;;12.99;100.00;101043.47;5253724;28;20090;-73
2022/10/20 11:32:57;;;;;;;23.37;17.23;;;;;;;12.98;100.00;101028.66;5234700;28;20032;-72
2022/10/20 11:35:46;;;;;;;33.90;18.83;;;;;;;12.98;100.00;101018.16;5253384;28;20553;-72
2022/10/20 11:38:31;;;;;;;25.37;17.57;;;;;;;12.94;100.00;101013.09;5254208;28;20029;-73
2022/10/20 11:41:05;;;;;;;24.25;17.77;;;;;;;13.02;100.00;101015.19;5252625;28;20518;-72
2022/10/20 11:44:02;;;;;;;25.63;19.48;;;;;;;13.01;100.00;100996.91;5252072;28;20028;-74